sensor_id;sensor_type;location;lat;lon;timestamp;P1;durP1;ratioP1;P2;durP2;ratioP2
24173;SDS011;12324;48.146;11.502;2023-02-18T00:00:07;8.48;;;4.10;;
24173;SDS011;12324;48.146;11.502;2023-02-18T00:02:34;9.40;;;3.22;;
24173;SDS011;12324;48.146;11.502;2023-02-18T00:05:01;9.45;;;3.63;;
24173;SDS011;12324;48.146;11.502;2023-02-18T00:07:32;8.68;;;3.65;;
24173;SDS011;12324;48.146;11.502;2023-02-18T00:09:59;7.43;;;3.42;;
24173;SDS011;12324;48.146;11.502;2023-02-18T00:12:26;8.98;;;3.80;;
24173;SDS011;12324;48.146;11.502;2023-02-18T00:14:53;13.48;;;3.90;;
24173;SDS011;12324;48.146;11.502;2023-02-18T00:17:20;6.65;;;3.13;;
24173;SDS011;12324;48.146;11.502;2023-02-18T00:19:47;9.68;;;3.65;;
24173;SDS011;12324;48.146;11.502;2023-02-18T00:22:14;8.52;;;3.13;;
24173;SDS011;12324;48.146;11.502;2023-02-18T00:24:42;8.13;;;3.33;;
24173;SDS011;12324;48.146;11.502;2023-02-18T00:27:09;6.28;;;3.22;;
24173;SDS011;12324;48.146;11.502;2023-02-18T00:29:36;5.25;;;2.90;;
24173;SDS011;12324;48.146;11.502;2023-02-18T00:32:03;9.98;;;3.47;;
24173;SDS011;12324;48.146;11.502;2023-02-18T00:34:30;8.52;;;3.40;;
24173;SDS011;12324;48.146;11.502;2023-02-18T00:36:57;9.95;;;3.75;;
24173;SDS011;12324;48.146;11.502;2023-02-18T00:39:24;8.43;;;3.00;;
24173;SDS011;12324;48.146;11.502;2023-02-18T00:41:51;9.27;;;3.50;;
24173;SDS011;12324;48.146;11.502;2023-02-18T00:44:18;8.95;;;3.58;;
24173;SDS011;12324;48.146;11.502;2023-02-18T00:46:45;10.73;;;2.88;;
24173;SDS011;12324;48.146;11.502;2023-02-18T00:49:15;7.80;;;3.53;;
24173;SDS011;12324;48.146;11.502;2023-02-18T00:51:42;11.50;;;3.67;;
24173;SDS011;12324;48.146;11.502;2023-02-18T00:54:09;9.48;;;3.15;;
24173;SDS011;12324;48.146;11.502;2023-02-18T00:56:36;8.77;;;3.58;;
24173;SDS011;12324;48.146;11.502;2023-02-18T00:59:03;8.43;;;3.55;;
24173;SDS011;12324;48.146;11.502;2023-02-18T01:01:30;9.00;;;3.40;;
24173;SDS011;12324;48.146;11.502;2023-02-18T01:03:58;7.55;;;3.20;;
24173;SDS011;12324;48.146;11.502;2023-02-18T01:06:25;5.78;;;2.78;;
24173;SDS011;12324;48.146;11.502;2023-02-18T01:08:52;8.00;;;3.47;;
24173;SDS011;12324;48.146;11.502;2023-02-18T01:11:19;5.57;;;2.90;;
24173;SDS011;12324;48.146;11.502;2023-02-18T01:13:46;8.50;;;2.78;;
24173;SDS011;12324;48.146;11.502;2023-02-18T01:16:13;7.80;;;3.17;;
24173;SDS011;12324;48.146;11.502;2023-02-18T01:18:42;9.18;;;3.03;;
24173;SDS011;12324;48.146;11.502;2023-02-18T01:21:09;6.40;;;2.70;;
24173;SDS011;12324;48.146;11.502;2023-02-18T01:23:36;5.00;;;3.00;;
24173;SDS011;12324;48.146;11.502;2023-02-18T01:26:04;5.35;;;2.63;;
24173;SDS011;12324;48.146;11.502;2023-02-18T01:28:32;6.05;;;3.00;;
24173;SDS011;12324;48.146;11.502;2023-02-18T01:31:03;6.85;;;2.80;;
24173;SDS011;12324;48.146;11.502;2023-02-18T01:33:31;6.75;;;3.03;;
24173;SDS011;12324;48.146;11.502;2023-02-18T01:35:58;9.15;;;3.10;;
24173;SDS011;12324;48.146;11.502;2023-02-18T01:38:25;6.47;;;3.08;;
24173;SDS011;12324;48.146;11.502;2023-02-18T01:40:53;6.78;;;2.95;;
24173;SDS011;12324;48.146;11.502;2023-02-18T01:43:20;7.75;;;3.55;;
24173;SDS011;12324;48.146;11.502;2023-02-18T01:48:29;6.90;;;3.33;;
24173;SDS011;12324;48.146;11.502;2023-02-18T01:53:50;7.00;;;3.17;;
24173;SDS011;12324;48.146;11.502;2023-02-18T01:56:19;11.55;;;4.20;;
24173;SDS011;12324;48.146;11.502;2023-02-18T01:58:48;9.88;;;3.75;;
24173;SDS011;12324;48.146;11.502;2023-02-18T02:01:15;8.90;;;3.80;;
24173;SDS011;12324;48.146;11.502;2023-02-18T02:03:43;9.23;;;3.72;;
24173;SDS011;12324;48.146;11.502;2023-02-18T02:06:14;12.90;;;3.97;;
24173;SDS011;12324;48.146;11.502;2023-02-18T02:08:42;8.57;;;3.72;;
24173;SDS011;12324;48.146;11.502;2023-02-18T02:11:15;8.68;;;4.15;;
24173;SDS011;12324;48.146;11.502;2023-02-18T02:29:12;6.63;;;3.87;;
24173;SDS011;12324;48.146;11.502;2023-02-18T02:32:00;7.03;;;3.70;;
24173;SDS011;12324;48.146;11.502;2023-02-18T02:39:30;6.72;;;2.95;;
24173;SDS011;12324;48.146;11.502;2023-02-18T02:42:02;6.07;;;3.00;;
24173;SDS011;12324;48.146;11.502;2023-02-18T02:47:19;6.00;;;3.40;;
24173;SDS011;12324;48.146;11.502;2023-02-18T02:50:00;5.93;;;3.00;;
24173;SDS011;12324;48.146;11.502;2023-02-18T02:52:31;8.15;;;2.90;;
24173;SDS011;12324;48.146;11.502;2023-02-18T02:54:58;10.25;;;3.70;;
24173;SDS011;12324;48.146;11.502;2023-02-18T02:59:54;6.22;;;2.40;;
24173;SDS011;12324;48.146;11.502;2023-02-18T03:05:14;5.68;;;2.70;;
24173;SDS011;12324;48.146;11.502;2023-02-18T03:10:21;5.05;;;2.63;;
24173;SDS011;12324;48.146;11.502;2023-02-18T03:13:03;7.05;;;2.35;;
24173;SDS011;12324;48.146;11.502;2023-02-18T03:21:17;4.53;;;2.50;;
24173;SDS011;12324;48.146;11.502;2023-02-18T03:23:52;4.22;;;2.13;;
24173;SDS011;12324;48.146;11.502;2023-02-18T03:26:21;6.03;;;2.33;;
24173;SDS011;12324;48.146;11.502;2023-02-18T03:28:50;4.13;;;2.35;;
24173;SDS011;12324;48.146;11.502;2023-02-18T03:31:19;3.45;;;2.10;;
24173;SDS011;12324;48.146;11.502;2023-02-18T03:34:10;5.05;;;2.20;;
24173;SDS011;12324;48.146;11.502;2023-02-18T03:36:35;4.82;;;2.28;;
24173;SDS011;12324;48.146;11.502;2023-02-18T03:39:09;4.20;;;2.05;;
24173;SDS011;12324;48.146;11.502;2023-02-18T03:41:38;4.63;;;2.22;;
24173;SDS011;12324;48.146;11.502;2023-02-18T03:44:06;5.78;;;2.28;;
24173;SDS011;12324;48.146;11.502;2023-02-18T03:46:34;4.78;;;2.38;;
24173;SDS011;12324;48.146;11.502;2023-02-18T03:49:02;5.20;;;2.00;;
24173;SDS011;12324;48.146;11.502;2023-02-18T03:51:29;6.85;;;2.05;;
24173;SDS011;12324;48.146;11.502;2023-02-18T03:53:57;2.95;;;1.80;;
24173;SDS011;12324;48.146;11.502;2023-02-18T03:56:24;4.72;;;2.35;;
24173;SDS011;12324;48.146;11.502;2023-02-18T03:58:51;5.53;;;2.20;;
24173;SDS011;12324;48.146;11.502;2023-02-18T04:01:18;3.10;;;2.05;;
24173;SDS011;12324;48.146;11.502;2023-02-18T04:03:45;3.38;;;2.40;;
24173;SDS011;12324;48.146;11.502;2023-02-18T04:06:12;7.05;;;2.80;;
24173;SDS011;12324;48.146;11.502;2023-02-18T04:08:39;3.83;;;2.20;;
24173;SDS011;12324;48.146;11.502;2023-02-18T04:11:06;4.13;;;2.50;;
24173;SDS011;12324;48.146;11.502;2023-02-18T04:13:33;4.25;;;2.70;;
24173;SDS011;12324;48.146;11.502;2023-02-18T04:16:00;4.25;;;2.47;;
24173;SDS011;12324;48.146;11.502;2023-02-18T04:18:28;5.32;;;2.78;;
24173;SDS011;12324;48.146;11.502;2023-02-18T04:20:55;5.55;;;2.42;;
24173;SDS011;12324;48.146;11.502;2023-02-18T04:23:22;4.70;;;2.33;;
24173;SDS011;12324;48.146;11.502;2023-02-18T04:25:49;7.25;;;2.83;;
24173;SDS011;12324;48.146;11.502;2023-02-18T04:28:16;7.07;;;2.65;;
24173;SDS011;12324;48.146;11.502;2023-02-18T04:30:43;4.35;;;2.47;;
24173;SDS011;12324;48.146;11.502;2023-02-18T04:33:11;4.68;;;2.15;;
24173;SDS011;12324;48.146;11.502;2023-02-18T04:35:38;5.75;;;2.88;;
24173;SDS011;12324;48.146;11.502;2023-02-18T04:38:07;5.72;;;2.97;;
24173;SDS011;12324;48.146;11.502;2023-02-18T04:40:35;5.88;;;2.88;;
24173;SDS011;12324;48.146;11.502;2023-02-18T04:43:02;5.18;;;2.90;;
24173;SDS011;12324;48.146;11.502;2023-02-18T04:45:29;3.78;;;2.50;;
24173;SDS011;12324;48.146;11.502;2023-02-18T04:47:56;4.55;;;2.63;;
24173;SDS011;12324;48.146;11.502;2023-02-18T04:50:23;4.32;;;2.17;;
24173;SDS011;12324;48.146;11.502;2023-02-18T04:52:50;3.17;;;2.08;;
24173;SDS011;12324;48.146;11.502;2023-02-18T04:55:17;4.60;;;2.42;;
24173;SDS011;12324;48.146;11.502;2023-02-18T04:57:44;4.88;;;2.35;;
24173;SDS011;12324;48.146;11.502;2023-02-18T05:00:15;4.38;;;2.10;;
24173;SDS011;12324;48.146;11.502;2023-02-18T05:02:42;3.50;;;1.95;;
24173;SDS011;12324;48.146;11.502;2023-02-18T05:05:10;6.22;;;2.40;;
24173;SDS011;12324;48.146;11.502;2023-02-18T05:07:37;4.43;;;2.25;;
24173;SDS011;12324;48.146;11.502;2023-02-18T05:10:04;3.00;;;2.03;;
24173;SDS011;12324;48.146;11.502;2023-02-18T05:12:31;5.28;;;2.60;;
24173;SDS011;12324;48.146;11.502;2023-02-18T05:14:58;4.88;;;2.42;;
24173;SDS011;12324;48.146;11.502;2023-02-18T05:17:25;3.60;;;2.08;;
24173;SDS011;12324;48.146;11.502;2023-02-18T05:19:52;3.28;;;2.17;;
24173;SDS011;12324;48.146;11.502;2023-02-18T05:22:19;3.17;;;2.03;;
24173;SDS011;12324;48.146;11.502;2023-02-18T05:24:46;3.40;;;2.03;;
24173;SDS011;12324;48.146;11.502;2023-02-18T05:27:13;4.10;;;2.20;;
24173;SDS011;12324;48.146;11.502;2023-02-18T05:29:40;4.47;;;1.92;;
24173;SDS011;12324;48.146;11.502;2023-02-18T05:32:07;4.97;;;1.98;;
24173;SDS011;12324;48.146;11.502;2023-02-18T05:34:34;3.28;;;2.05;;
24173;SDS011;12324;48.146;11.502;2023-02-18T05:37:01;2.95;;;2.10;;
24173;SDS011;12324;48.146;11.502;2023-02-18T05:39:29;3.50;;;1.70;;
24173;SDS011;12324;48.146;11.502;2023-02-18T05:41:56;1.95;;;1.55;;
24173;SDS011;12324;48.146;11.502;2023-02-18T05:44:23;2.90;;;1.48;;
24173;SDS011;12324;48.146;11.502;2023-02-18T05:46:57;3.72;;;1.65;;
24173;SDS011;12324;48.146;11.502;2023-02-18T05:49:24;2.63;;;1.17;;
24173;SDS011;12324;48.146;11.502;2023-02-18T05:51:51;2.58;;;1.67;;
24173;SDS011;12324;48.146;11.502;2023-02-18T05:54:18;1.73;;;1.10;;
24173;SDS011;12324;48.146;11.502;2023-02-18T05:56:45;1.83;;;1.42;;
24173;SDS011;12324;48.146;11.502;2023-02-18T05:59:13;1.05;;;0.82;;
24173;SDS011;12324;48.146;11.502;2023-02-18T06:01:40;3.00;;;1.48;;
24173;SDS011;12324;48.146;11.502;2023-02-18T06:04:07;2.15;;;1.30;;
24173;SDS011;12324;48.146;11.502;2023-02-18T06:06:34;2.63;;;1.35;;
24173;SDS011;12324;48.146;11.502;2023-02-18T06:09:01;2.25;;;1.30;;
24173;SDS011;12324;48.146;11.502;2023-02-18T06:11:28;1.83;;;1.30;;
24173;SDS011;12324;48.146;11.502;2023-02-18T06:13:55;1.27;;;1.17;;
24173;SDS011;12324;48.146;11.502;2023-02-18T06:16:22;3.70;;;1.10;;
24173;SDS011;12324;48.146;11.502;2023-02-18T06:18:49;4.18;;;1.40;;
24173;SDS011;12324;48.146;11.502;2023-02-18T06:21:16;2.42;;;1.20;;
24173;SDS011;12324;48.146;11.502;2023-02-18T06:23:44;1.30;;;1.20;;
24173;SDS011;12324;48.146;11.502;2023-02-18T06:26:11;2.38;;;1.15;;
24173;SDS011;12324;48.146;11.502;2023-02-18T06:28:38;1.55;;;1.15;;
24173;SDS011;12324;48.146;11.502;2023-02-18T06:31:05;4.22;;;1.55;;
24173;SDS011;12324;48.146;11.502;2023-02-18T06:33:32;1.80;;;1.30;;
24173;SDS011;12324;48.146;11.502;2023-02-18T06:36:01;4.65;;;1.83;;
24173;SDS011;12324;48.146;11.502;2023-02-18T06:38:28;2.03;;;1.10;;
24173;SDS011;12324;48.146;11.502;2023-02-18T06:40:55;1.38;;;1.02;;
24173;SDS011;12324;48.146;11.502;2023-02-18T06:43:22;2.63;;;1.50;;
24173;SDS011;12324;48.146;11.502;2023-02-18T06:45:49;3.80;;;1.23;;
24173;SDS011;12324;48.146;11.502;2023-02-18T06:48:16;1.77;;;1.33;;
24173;SDS011;12324;48.146;11.502;2023-02-18T06:50:44;2.05;;;1.35;;
24173;SDS011;12324;48.146;11.502;2023-02-18T06:53:11;4.03;;;1.58;;
24173;SDS011;12324;48.146;11.502;2023-02-18T06:55:38;3.00;;;1.15;;
24173;SDS011;12324;48.146;11.502;2023-02-18T06:58:05;1.60;;;0.80;;
24173;SDS011;12324;48.146;11.502;2023-02-18T07:00:32;2.13;;;1.45;;
24173;SDS011;12324;48.146;11.502;2023-02-18T07:02:59;2.67;;;1.25;;
24173;SDS011;12324;48.146;11.502;2023-02-18T07:05:26;1.65;;;1.10;;
24173;SDS011;12324;48.146;11.502;2023-02-18T07:07:54;2.65;;;1.20;;
24173;SDS011;12324;48.146;11.502;2023-02-18T07:10:21;3.50;;;1.25;;
24173;SDS011;12324;48.146;11.502;2023-02-18T07:12:48;1.92;;;1.15;;
24173;SDS011;12324;48.146;11.502;2023-02-18T07:15:15;1.85;;;1.15;;
24173;SDS011;12324;48.146;11.502;2023-02-18T07:17:43;1.42;;;0.85;;
24173;SDS011;12324;48.146;11.502;2023-02-18T07:20:10;1.00;;;0.90;;
24173;SDS011;12324;48.146;11.502;2023-02-18T07:22:37;1.20;;;1.10;;
24173;SDS011;12324;48.146;11.502;2023-02-18T07:25:04;1.20;;;1.08;;
24173;SDS011;12324;48.146;11.502;2023-02-18T07:27:31;2.30;;;0.90;;
24173;SDS011;12324;48.146;11.502;2023-02-18T07:29:58;1.48;;;0.73;;
24173;SDS011;12324;48.146;11.502;2023-02-18T07:32:25;2.28;;;1.35;;
24173;SDS011;12324;48.146;11.502;2023-02-18T07:34:52;1.17;;;0.80;;
24173;SDS011;12324;48.146;11.502;2023-02-18T07:37:19;3.03;;;0.90;;
24173;SDS011;12324;48.146;11.502;2023-02-18T07:39:46;2.22;;;1.20;;
24173;SDS011;12324;48.146;11.502;2023-02-18T07:42:14;1.65;;;0.80;;
24173;SDS011;12324;48.146;11.502;2023-02-18T07:44:41;3.45;;;1.25;;
24173;SDS011;12324;48.146;11.502;2023-02-18T07:47:09;1.75;;;1.17;;
24173;SDS011;12324;48.146;11.502;2023-02-18T07:49:38;4.15;;;1.25;;
24173;SDS011;12324;48.146;11.502;2023-02-18T07:52:05;2.70;;;1.17;;
24173;SDS011;12324;48.146;11.502;2023-02-18T07:54:32;2.42;;;1.13;;
24173;SDS011;12324;48.146;11.502;2023-02-18T07:57:00;2.42;;;1.00;;
24173;SDS011;12324;48.146;11.502;2023-02-18T07:59:27;1.23;;;1.13;;
24173;SDS011;12324;48.146;11.502;2023-02-18T08:01:54;1.73;;;1.30;;
24173;SDS011;12324;48.146;11.502;2023-02-18T08:04:21;2.17;;;1.20;;
24173;SDS011;12324;48.146;11.502;2023-02-18T08:06:48;2.30;;;1.38;;
24173;SDS011;12324;48.146;11.502;2023-02-18T08:09:16;2.20;;;1.25;;
24173;SDS011;12324;48.146;11.502;2023-02-18T08:11:43;3.00;;;1.52;;
24173;SDS011;12324;48.146;11.502;2023-02-18T08:14:10;4.40;;;1.73;;
24173;SDS011;12324;48.146;11.502;2023-02-18T08:16:37;4.57;;;1.55;;
24173;SDS011;12324;48.146;11.502;2023-02-18T08:19:05;2.67;;;1.20;;
24173;SDS011;12324;48.146;11.502;2023-02-18T08:21:33;2.05;;;1.10;;
24173;SDS011;12324;48.146;11.502;2023-02-18T08:24:00;2.13;;;1.25;;
24173;SDS011;12324;48.146;11.502;2023-02-18T08:26:27;5.07;;;2.00;;
24173;SDS011;12324;48.146;11.502;2023-02-18T08:28:54;0.98;;;0.88;;
24173;SDS011;12324;48.146;11.502;2023-02-18T08:31:23;2.15;;;1.10;;
24173;SDS011;12324;48.146;11.502;2023-02-18T08:33:51;1.42;;;1.10;;
24173;SDS011;12324;48.146;11.502;2023-02-18T08:36:18;1.92;;;1.15;;
24173;SDS011;12324;48.146;11.502;2023-02-18T08:38:45;2.53;;;1.33;;
24173;SDS011;12324;48.146;11.502;2023-02-18T08:41:12;5.32;;;1.13;;
24173;SDS011;12324;48.146;11.502;2023-02-18T08:43:40;2.03;;;1.23;;
24173;SDS011;12324;48.146;11.502;2023-02-18T08:46:07;3.70;;;1.52;;
24173;SDS011;12324;48.146;11.502;2023-02-18T08:48:41;2.55;;;1.20;;
24173;SDS011;12324;48.146;11.502;2023-02-18T08:51:13;1.98;;;1.25;;
24173;SDS011;12324;48.146;11.502;2023-02-18T08:53:40;2.38;;;1.38;;
24173;SDS011;12324;48.146;11.502;2023-02-18T08:56:08;2.47;;;1.38;;
24173;SDS011;12324;48.146;11.502;2023-02-18T08:58:36;4.07;;;1.25;;
24173;SDS011;12324;48.146;11.502;2023-02-18T09:01:04;3.17;;;1.60;;
24173;SDS011;12324;48.146;11.502;2023-02-18T09:03:33;6.60;;;2.10;;
24173;SDS011;12324;48.146;11.502;2023-02-18T09:06:00;2.55;;;1.52;;
24173;SDS011;12324;48.146;11.502;2023-02-18T09:08:28;5.35;;;1.50;;
24173;SDS011;12324;48.146;11.502;2023-02-18T09:10:56;3.90;;;1.48;;
24173;SDS011;12324;48.146;11.502;2023-02-18T09:13:23;1.67;;;1.35;;
24173;SDS011;12324;48.146;11.502;2023-02-18T09:16:01;2.45;;;1.40;;
24173;SDS011;12324;48.146;11.502;2023-02-18T09:18:29;10.75;;;1.52;;
24173;SDS011;12324;48.146;11.502;2023-02-18T09:20:57;3.22;;;1.40;;
24173;SDS011;12324;48.146;11.502;2023-02-18T09:23:24;2.08;;;1.20;;
24173;SDS011;12324;48.146;11.502;2023-02-18T09:25:52;4.05;;;1.58;;
24173;SDS011;12324;48.146;11.502;2023-02-18T09:28:19;2.63;;;1.52;;
24173;SDS011;12324;48.146;11.502;2023-02-18T09:30:46;3.35;;;1.60;;
24173;SDS011;12324;48.146;11.502;2023-02-18T09:33:13;1.98;;;1.48;;
24173;SDS011;12324;48.146;11.502;2023-02-18T09:35:42;6.40;;;1.77;;
24173;SDS011;12324;48.146;11.502;2023-02-18T09:38:09;8.38;;;1.50;;
24173;SDS011;12324;48.146;11.502;2023-02-18T09:40:37;5.13;;;1.63;;
24173;SDS011;12324;48.146;11.502;2023-02-18T09:43:05;6.35;;;2.03;;
24173;SDS011;12324;48.146;11.502;2023-02-18T09:45:32;2.63;;;1.20;;
24173;SDS011;12324;48.146;11.502;2023-02-18T09:48:00;3.15;;;1.65;;
24173;SDS011;12324;48.146;11.502;2023-02-18T09:50:29;3.03;;;1.42;;
24173;SDS011;12324;48.146;11.502;2023-02-18T09:52:58;3.05;;;1.75;;
24173;SDS011;12324;48.146;11.502;2023-02-18T09:55:30;12.65;;;1.58;;
24173;SDS011;12324;48.146;11.502;2023-02-18T09:58:00;5.10;;;1.77;;
24173;SDS011;12324;48.146;11.502;2023-02-18T10:00:31;3.88;;;1.40;;
24173;SDS011;12324;48.146;11.502;2023-02-18T10:08:23;2.80;;;1.50;;
24173;SDS011;12324;48.146;11.502;2023-02-18T10:10:51;3.75;;;1.30;;
24173;SDS011;12324;48.146;11.502;2023-02-18T10:13:19;3.63;;;1.90;;
24173;SDS011;12324;48.146;11.502;2023-02-18T10:15:46;3.53;;;1.52;;
24173;SDS011;12324;48.146;11.502;2023-02-18T10:18:22;2.40;;;1.20;;
24173;SDS011;12324;48.146;11.502;2023-02-18T10:21:06;6.38;;;1.98;;
24173;SDS011;12324;48.146;11.502;2023-02-18T10:23:36;4.40;;;1.50;;
24173;SDS011;12324;48.146;11.502;2023-02-18T10:26:04;4.15;;;1.40;;
24173;SDS011;12324;48.146;11.502;2023-02-18T10:28:32;6.45;;;1.92;;
24173;SDS011;12324;48.146;11.502;2023-02-18T10:31:02;5.55;;;1.30;;
24173;SDS011;12324;48.146;11.502;2023-02-18T10:36:54;3.17;;;1.60;;
24173;SDS011;12324;48.146;11.502;2023-02-18T10:44:22;2.58;;;1.38;;
24173;SDS011;12324;48.146;11.502;2023-02-18T10:51:55;2.63;;;1.37;;
24173;SDS011;12324;48.146;11.502;2023-02-18T10:54:23;1.88;;;1.17;;
24173;SDS011;12324;48.146;11.502;2023-02-18T10:56:51;6.22;;;1.55;;
24173;SDS011;12324;48.146;11.502;2023-02-18T10:59:19;4.40;;;1.65;;
24173;SDS011;12324;48.146;11.502;2023-02-18T11:02:03;5.03;;;1.33;;
24173;SDS011;12324;48.146;11.502;2023-02-18T11:04:38;5.45;;;1.65;;
24173;SDS011;12324;48.146;11.502;2023-02-18T11:09:39;3.55;;;1.30;;
24173;SDS011;12324;48.146;11.502;2023-02-18T11:17:41;2.50;;;1.30;;
24173;SDS011;12324;48.146;11.502;2023-02-18T11:20:31;2.92;;;1.20;;
24173;SDS011;12324;48.146;11.502;2023-02-18T11:28:01;3.35;;;1.08;;
24173;SDS011;12324;48.146;11.502;2023-02-18T11:30:33;1.88;;;1.20;;
24173;SDS011;12324;48.146;11.502;2023-02-18T11:33:24;2.22;;;1.27;;
24173;SDS011;12324;48.146;11.502;2023-02-18T11:35:49;4.32;;;1.40;;
24173;SDS011;12324;48.146;11.502;2023-02-18T11:38:22;2.22;;;1.33;;
24173;SDS011;12324;48.146;11.502;2023-02-18T11:41:05;1.80;;;1.20;;
24173;SDS011;12324;48.146;11.502;2023-02-18T11:43:33;2.88;;;1.05;;
24173;SDS011;12324;48.146;11.502;2023-02-18T11:46:14;3.72;;;0.98;;
24173;SDS011;12324;48.146;11.502;2023-02-18T11:48:42;2.05;;;1.45;;
24173;SDS011;12324;48.146;11.502;2023-02-18T11:51:32;1.98;;;1.10;;
24173;SDS011;12324;48.146;11.502;2023-02-18T11:56:30;2.83;;;1.38;;
24173;SDS011;12324;48.146;11.502;2023-02-18T11:58:57;3.55;;;1.52;;
24173;SDS011;12324;48.146;11.502;2023-02-18T12:01:44;1.25;;;0.90;;
24173;SDS011;12324;48.146;11.502;2023-02-18T12:04:19;2.33;;;1.35;;
24173;SDS011;12324;48.146;11.502;2023-02-18T12:09:34;1.70;;;1.33;;
24173;SDS011;12324;48.146;11.502;2023-02-18T12:13:05;1.13;;;1.02;;
24173;SDS011;12324;48.146;11.502;2023-02-18T12:14:59;3.33;;;1.40;;
24173;SDS011;12324;48.146;11.502;2023-02-18T12:22:42;5.15;;;1.48;;
24173;SDS011;12324;48.146;11.502;2023-02-18T12:30:24;1.85;;;0.98;;
24173;SDS011;12324;48.146;11.502;2023-02-18T12:40:35;2.90;;;1.25;;
24173;SDS011;12324;48.146;11.502;2023-02-18T12:43:18;1.73;;;1.30;;
24173;SDS011;12324;48.146;11.502;2023-02-18T12:48:37;2.25;;;1.35;;
24173;SDS011;12324;48.146;11.502;2023-02-18T12:53:40;2.00;;;1.23;;
24173;SDS011;12324;48.146;11.502;2023-02-18T12:56:17;5.95;;;1.45;;
24173;SDS011;12324;48.146;11.502;2023-02-18T13:04:20;6.13;;;1.35;;
24173;SDS011;12324;48.146;11.502;2023-02-18T13:12:29;7.15;;;1.35;;
24173;SDS011;12324;48.146;11.502;2023-02-18T13:15:17;3.30;;;1.33;;
24173;SDS011;12324;48.146;11.502;2023-02-18T13:17:45;4.43;;;1.00;;
24173;SDS011;12324;48.146;11.502;2023-02-18T13:20:18;3.10;;;1.23;;
24173;SDS011;12324;48.146;11.502;2023-02-18T13:22:47;3.50;;;1.30;;
24173;SDS011;12324;48.146;11.502;2023-02-18T13:25:16;1.70;;;0.82;;
24173;SDS011;12324;48.146;11.502;2023-02-18T13:33:07;5.73;;;1.30;;
24173;SDS011;12324;48.146;11.502;2023-02-18T13:35:42;1.23;;;1.10;;
24173;SDS011;12324;48.146;11.502;2023-02-18T13:40:48;2.75;;;1.60;;
24173;SDS011;12324;48.146;11.502;2023-02-18T13:43:17;1.30;;;1.02;;
24173;SDS011;12324;48.146;11.502;2023-02-18T13:46:19;6.28;;;1.60;;
24173;SDS011;12324;48.146;11.502;2023-02-18T13:48:48;2.92;;;1.13;;
24173;SDS011;12324;48.146;11.502;2023-02-18T13:53:58;7.30;;;1.50;;
24173;SDS011;12324;48.146;11.502;2023-02-18T13:56:27;6.82;;;1.40;;
24173;SDS011;12324;48.146;11.502;2023-02-18T13:58:59;3.00;;;1.45;;
24173;SDS011;12324;48.146;11.502;2023-02-18T14:03:59;12.40;;;1.33;;
24173;SDS011;12324;48.146;11.502;2023-02-18T14:06:28;5.50;;;1.58;;
24173;SDS011;12324;48.146;11.502;2023-02-18T14:11:39;4.38;;;1.48;;
24173;SDS011;12324;48.146;11.502;2023-02-18T14:19:28;4.20;;;1.80;;
24173;SDS011;12324;48.146;11.502;2023-02-18T14:22:21;2.03;;;1.30;;
24173;SDS011;12324;48.146;11.502;2023-02-18T14:24:46;2.35;;;1.30;;
24173;SDS011;12324;48.146;11.502;2023-02-18T14:27:14;4.18;;;1.83;;
24173;SDS011;12324;48.146;11.502;2023-02-18T14:29:41;3.47;;;1.40;;
24173;SDS011;12324;48.146;11.502;2023-02-18T14:32:09;1.98;;;1.33;;
24173;SDS011;12324;48.146;11.502;2023-02-18T14:37:28;5.55;;;1.90;;
24173;SDS011;12324;48.146;11.502;2023-02-18T14:42:56;3.15;;;1.60;;
24173;SDS011;12324;48.146;11.502;2023-02-18T14:45:46;2.80;;;1.52;;
24173;SDS011;12324;48.146;11.502;2023-02-18T14:48:20;3.85;;;1.58;;
24173;SDS011;12324;48.146;11.502;2023-02-18T14:50:51;4.65;;;1.58;;
24173;SDS011;12324;48.146;11.502;2023-02-18T14:53:19;3.92;;;1.83;;
24173;SDS011;12324;48.146;11.502;2023-02-18T14:55:49;3.90;;;1.60;;
24173;SDS011;12324;48.146;11.502;2023-02-18T15:00:43;2.88;;;1.55;;
24173;SDS011;12324;48.146;11.502;2023-02-18T15:03:14;3.83;;;1.50;;
24173;SDS011;12324;48.146;11.502;2023-02-18T15:05:42;3.60;;;1.50;;
24173;SDS011;12324;48.146;11.502;2023-02-18T15:08:14;6.68;;;1.80;;
24173;SDS011;12324;48.146;11.502;2023-02-18T15:10:43;4.20;;;1.60;;
24173;SDS011;12324;48.146;11.502;2023-02-18T15:15:41;4.68;;;1.60;;
24173;SDS011;12324;48.146;11.502;2023-02-18T15:18:17;3.00;;;1.75;;
24173;SDS011;12324;48.146;11.502;2023-02-18T15:20:46;5.50;;;1.70;;
24173;SDS011;12324;48.146;11.502;2023-02-18T15:23:14;6.00;;;1.65;;
24173;SDS011;12324;48.146;11.502;2023-02-18T15:25:46;3.55;;;1.48;;
24173;SDS011;12324;48.146;11.502;2023-02-18T15:28:22;4.20;;;1.50;;
24173;SDS011;12324;48.146;11.502;2023-02-18T15:30:49;4.90;;;1.30;;
24173;SDS011;12324;48.146;11.502;2023-02-18T15:33:17;2.67;;;1.50;;
24173;SDS011;12324;48.146;11.502;2023-02-18T15:35:44;2.22;;;1.38;;
24173;SDS011;12324;48.146;11.502;2023-02-18T15:38:13;2.70;;;1.20;;
24173;SDS011;12324;48.146;11.502;2023-02-18T15:40:41;4.75;;;1.35;;
24173;SDS011;12324;48.146;11.502;2023-02-18T15:43:11;2.47;;;1.15;;
24173;SDS011;12324;48.146;11.502;2023-02-18T15:45:39;2.35;;;1.48;;
24173;SDS011;12324;48.146;11.502;2023-02-18T15:50:48;3.22;;;1.45;;
24173;SDS011;12324;48.146;11.502;2023-02-18T15:53:16;2.78;;;1.30;;
24173;SDS011;12324;48.146;11.502;2023-02-18T15:55:46;3.00;;;1.40;;
24173;SDS011;12324;48.146;11.502;2023-02-18T15:58:15;3.28;;;1.63;;
24173;SDS011;12324;48.146;11.502;2023-02-18T16:00:48;1.00;;;0.85;;
24173;SDS011;12324;48.146;11.502;2023-02-18T16:03:19;4.05;;;1.23;;
24173;SDS011;12324;48.146;11.502;2023-02-18T16:05:47;4.38;;;1.35;;
24173;SDS011;12324;48.146;11.502;2023-02-18T16:08:24;1.73;;;1.10;;
24173;SDS011;12324;48.146;11.502;2023-02-18T16:11:05;3.22;;;1.38;;
24173;SDS011;12324;48.146;11.502;2023-02-18T16:13:33;1.77;;;1.20;;
24173;SDS011;12324;48.146;11.502;2023-02-18T16:16:00;4.25;;;1.80;;
24173;SDS011;12324;48.146;11.502;2023-02-18T16:21:02;5.15;;;1.55;;
24173;SDS011;12324;48.146;11.502;2023-02-18T16:23:31;5.15;;;1.50;;
24173;SDS011;12324;48.146;11.502;2023-02-18T16:28:48;3.83;;;1.45;;
24173;SDS011;12324;48.146;11.502;2023-02-18T16:31:16;2.38;;;1.50;;
24173;SDS011;12324;48.146;11.502;2023-02-18T16:33:43;4.15;;;1.40;;
24173;SDS011;12324;48.146;11.502;2023-02-18T16:36:12;3.30;;;1.77;;
24173;SDS011;12324;48.146;11.502;2023-02-18T16:38:43;4.38;;;1.80;;
24173;SDS011;12324;48.146;11.502;2023-02-18T16:41:11;1.60;;;1.30;;
24173;SDS011;12324;48.146;11.502;2023-02-18T16:43:39;2.67;;;1.30;;
24173;SDS011;12324;48.146;11.502;2023-02-18T16:46:08;6.15;;;1.63;;
24173;SDS011;12324;48.146;11.502;2023-02-18T16:48:37;3.45;;;1.58;;
24173;SDS011;12324;48.146;11.502;2023-02-18T16:51:13;3.35;;;1.70;;
24173;SDS011;12324;48.146;11.502;2023-02-18T16:53:41;2.67;;;1.53;;
24173;SDS011;12324;48.146;11.502;2023-02-18T16:56:12;1.92;;;1.48;;
24173;SDS011;12324;48.146;11.502;2023-02-18T16:58:39;3.67;;;1.77;;
24173;SDS011;12324;48.146;11.502;2023-02-18T17:01:09;2.63;;;1.52;;
24173;SDS011;12324;48.146;11.502;2023-02-18T17:03:40;3.73;;;1.97;;
24173;SDS011;12324;48.146;11.502;2023-02-18T17:06:07;3.28;;;1.50;;
24173;SDS011;12324;48.146;11.502;2023-02-18T17:08:34;2.67;;;1.58;;
24173;SDS011;12324;48.146;11.502;2023-02-18T17:11:01;4.13;;;1.67;;
24173;SDS011;12324;48.146;11.502;2023-02-18T17:13:29;2.70;;;1.60;;
24173;SDS011;12324;48.146;11.502;2023-02-18T17:15:56;2.95;;;1.40;;
24173;SDS011;12324;48.146;11.502;2023-02-18T17:18:24;2.90;;;1.20;;